Terminal Aerodrome Forecast
Issued by NWS

Home | Current Version | Previous Version | Text Only | Print | Product List | Glossary On
Versions: 1 2 3 4 5 6 7 8 9 10 11 12
000
FTUS44 KTSA 291120
TAFMLC
TAF
KMLC 291120Z 2912/3012 16004KT P6SM SCT025
     FM291500 17010G18KT P6SM SCT035 SCT250
     FM291800 18011G20KT P6SM SCT050 SCT250
     FM300200 17008KT P6SM FEW050 SCT250=

USA.gov is the U.S. government's official web portal to all federal, state and local government web resources and services.